PWSweather.com
Personal Weather Stations
Station Observations

MakarauRodneyNZ

Lat: -36.52421, Lon: 174.47572

Elevation: 606

Station Type: Davis VP2

http://kaiparaweather.dynu.net/index.php

Latest ConditionsUpdated 2:00:01 PM GMT+12:12 Sunday, Feb 24, 2019
Currently Today's Max Today's Min Today's Average
Temperature 67.0°F19.4°C 71.5°F21.9°C 59.3°F15.2°C 65.0°F18.3°C
Dew Point 58.1°F14.5°C 60.2°F15.7°C 55.4°F13.0°C 57.9°F14.4°C
Winds 6.9 mph WNW11.1 kmh WNW 13.8 mph -22.2 kmh - - 5.2 mph 8.4 kmh
Wind Gusts 11.5 mph18.5 kmh 21.9 mph35.2 kmh - -
Humidity 73% 93% 62% 79%
Pressure 29.53 in1000.0 mb 29.61 in1002.7 mb 29.50 in999.0 mb -
Precipitation - 0.11 in2.8 mm - -
Hour Temp Dew Point Humidity Winds Wind Gusts Pressure Precip Precip Rate Daily Precip Total
02:00 PM 67.0°F19.4°C 58.1°F14.5°C 73% 6.9 mph WNW11.1 kmh WNW 11.5 mph18.5 kmh 29.53 in1000.0 mb - 0.00 in0.0 mm 0.11 in2.8 mm
01:50 PM 67.6°F19.8°C 57.9°F14.4°C 71% 6.9 mph WSW11.1 kmh WSW 11.5 mph18.5 kmh 29.54 in1000.3 mb - 0.00 in0.0 mm 0.11 in2.8 mm
01:40 PM 69.7°F20.9°C 58.3°F14.6°C 67% 4.6 mph SW7.4 kmh SW 10.4 mph16.7 kmh 29.54 in1000.3 mb - 0.00 in0.0 mm 0.11 in2.8 mm
01:30 PM 70.1°F21.2°C 57.8°F14.3°C 65% 4.6 mph W7.4 kmh W 10.4 mph16.7 kmh 29.54 in1000.3 mb - 0.00 in0.0 mm 0.11 in2.8 mm
01:20 PM 69.5°F20.8°C 57.2°F14.0°C 65% 6.9 mph W11.1 kmh W 18.4 mph29.6 kmh 29.54 in1000.3 mb - 0.00 in0.0 mm 0.11 in2.8 mm
01:10 PM 68.9°F20.5°C 57.5°F14.2°C 67% 4.6 mph SW7.4 kmh SW 9.2 mph14.8 kmh 29.54 in1000.3 mb - 0.00 in0.0 mm 0.11 in2.8 mm
01:00 PM 69.9°F21.1°C 58.0°F14.4°C 66% 5.8 mph SW9.3 kmh SW 11.5 mph18.5 kmh 29.54 in1000.3 mb - 0.00 in0.0 mm 0.11 in2.8 mm
12:50 PM 71.5°F21.9°C 59.1°F15.1°C 65% 8.1 mph WSW13.0 kmh WSW 8.1 mph13.0 kmh 29.53 in1000.0 mb - 0.00 in0.0 mm 0.11 in2.8 mm
12:40 PM 70.7°F21.5°C 57.5°F14.2°C 63% 5.8 mph WNW9.3 kmh WNW 21.9 mph35.2 kmh 29.53 in1000.0 mb - 0.00 in0.0 mm 0.11 in2.8 mm
12:30 PM 69.0°F20.6°C 55.5°F13.1°C 62% 8.1 mph WSW13.0 kmh WSW 13.8 mph22.2 kmh 29.53 in1000.0 mb - 0.00 in0.0 mm 0.11 in2.8 mm
12:20 PM 69.4°F20.8°C 55.8°F13.2°C 62% 6.9 mph WSW11.1 kmh WSW 11.5 mph18.5 kmh 29.53 in1000.0 mb - 0.00 in0.0 mm 0.11 in2.8 mm
12:10 PM 69.7°F20.9°C 56.1°F13.4°C 62% 6.9 mph W11.1 kmh W 17.3 mph27.8 kmh 29.53 in1000.0 mb - 0.00 in0.0 mm 0.11 in2.8 mm
12:00 PM 70.2°F21.2°C 58.3°F14.6°C 66% 4.6 mph WSW7.4 kmh WSW 11.5 mph18.5 kmh 29.53 in1000.0 mb - 0.00 in0.0 mm 0.11 in2.8 mm
11:50 AM 70.7°F21.5°C 57.4°F14.1°C 63% 8.1 mph W13.0 kmh W 15.0 mph24.1 kmh 29.53 in1000.0 mb - 0.00 in0.0 mm 0.11 in2.8 mm
11:40 AM 70.6°F21.4°C 57.4°F14.1°C 63% 12.7 mph W20.4 kmh W 19.6 mph31.5 kmh 29.54 in1000.3 mb - 0.00 in0.0 mm 0.11 in2.8 mm
11:30 AM 69.4°F20.8°C 57.5°F14.2°C 66% 5.8 mph WSW9.3 kmh WSW 13.8 mph22.2 kmh 29.54 in1000.3 mb - 0.00 in0.0 mm 0.11 in2.8 mm
11:20 AM 70.2°F21.2°C 57.0°F13.9°C 63% 6.9 mph WSW11.1 kmh WSW 12.7 mph20.4 kmh 29.54 in1000.3 mb - 0.00 in0.0 mm 0.11 in2.8 mm
11:10 AM 70.5°F21.4°C 57.3°F14.1°C 63% 8.1 mph W13.0 kmh W 12.7 mph20.4 kmh 29.55 in1000.7 mb - 0.00 in0.0 mm 0.11 in2.8 mm
11:00 AM 69.9°F21.1°C 58.8°F14.9°C 68% 6.9 mph SW11.1 kmh SW 13.8 mph22.2 kmh 29.55 in1000.7 mb - 0.00 in0.0 mm 0.11 in2.8 mm
10:50 AM 69.8°F21.0°C 58.3°F14.6°C 67% 5.8 mph WSW9.3 kmh WSW 10.4 mph16.7 kmh 29.55 in1000.7 mb - 0.00 in0.0 mm 0.11 in2.8 mm
10:40 AM 70.7°F21.5°C 60.0°F15.6°C 69% 5.8 mph WSW9.3 kmh WSW 9.2 mph14.8 kmh 29.55 in1000.7 mb - 0.00 in0.0 mm 0.11 in2.8 mm
10:30 AM 70.8°F21.6°C 58.0°F14.4°C 64% 5.8 mph SW9.3 kmh SW 10.4 mph16.7 kmh 29.55 in1000.7 mb - 0.00 in0.0 mm 0.11 in2.8 mm
10:20 AM 70.8°F21.6°C 58.4°F14.7°C 65% 5.8 mph WSW9.3 kmh WSW 9.2 mph14.8 kmh 29.55 in1000.7 mb - 0.00 in0.0 mm 0.11 in2.8 mm
10:10 AM 69.4°F20.8°C 56.7°F13.7°C 64% 13.8 mph W22.2 kmh W 19.6 mph31.5 kmh 29.55 in1000.7 mb - 0.00 in0.0 mm 0.11 in2.8 mm
10:00 AM 68.9°F20.5°C 58.3°F14.6°C 69% 6.9 mph SW11.1 kmh SW 11.5 mph18.5 kmh 29.55 in1000.7 mb - 0.00 in0.0 mm 0.11 in2.8 mm
09:50 AM 68.7°F20.4°C 57.7°F14.3°C 68% 5.8 mph WSW9.3 kmh WSW 10.4 mph16.7 kmh 29.55 in1000.7 mb - 0.00 in0.0 mm 0.11 in2.8 mm
09:40 AM 67.9°F19.9°C 57.8°F14.3°C 70% 9.2 mph WSW14.8 kmh WSW 11.5 mph18.5 kmh 29.55 in1000.7 mb - 0.00 in0.0 mm 0.11 in2.8 mm
09:30 AM 65.8°F18.8°C 57.6°F14.2°C 75% 5.8 mph WSW9.3 kmh WSW 5.8 mph9.3 kmh 29.56 in1001.0 mb - 0.00 in0.0 mm 0.11 in2.8 mm
09:20 AM 66.4°F19.1°C 58.9°F14.9°C 77% 5.8 mph SW9.3 kmh SW 10.4 mph16.7 kmh 29.55 in1000.7 mb - 0.00 in0.0 mm 0.11 in2.8 mm
09:10 AM 67.6°F19.8°C 59.8°F15.4°C 76% 4.6 mph WSW7.4 kmh WSW 5.8 mph9.3 kmh 29.55 in1000.7 mb - 0.00 in0.0 mm 0.11 in2.8 mm
09:00 AM 66.4°F19.1°C 58.6°F14.8°C 76% 3.5 mph WSW5.6 kmh WSW 10.4 mph16.7 kmh 29.55 in1000.7 mb - 0.00 in0.0 mm 0.11 in2.8 mm
08:50 AM 66.6°F19.2°C 59.1°F15.1°C 77% 4.6 mph WSW7.4 kmh WSW 5.8 mph9.3 kmh 29.55 in1000.7 mb - 0.00 in0.0 mm 0.11 in2.8 mm
08:40 AM 65.4°F18.6°C 59.4°F15.2°C 81% 6.9 mph WSW11.1 kmh WSW 13.8 mph22.2 kmh 29.55 in1000.7 mb - 0.00 in0.0 mm 0.11 in2.8 mm
08:30 AM 63.5°F17.5°C 57.9°F14.4°C 82% 5.8 mph WSW9.3 kmh WSW 10.4 mph16.7 kmh 29.54 in1000.3 mb - 0.00 in0.0 mm 0.11 in2.8 mm
08:20 AM 63.2°F17.3°C 57.6°F14.2°C 82% 4.6 mph WSW7.4 kmh WSW 9.2 mph14.8 kmh 29.55 in1000.7 mb - 0.00 in0.0 mm 0.11 in2.8 mm
08:10 AM 63.0°F17.2°C 57.7°F14.3°C 83% 3.5 mph NW5.6 kmh NW 8.1 mph13.0 kmh 29.55 in1000.7 mb - 0.00 in0.0 mm 0.11 in2.8 mm
08:00 AM 61.6°F16.4°C 56.7°F13.7°C 84% 4.6 mph WSW7.4 kmh WSW 5.8 mph9.3 kmh 29.55 in1000.7 mb - 0.00 in0.0 mm 0.11 in2.8 mm
07:50 AM 61.1°F16.2°C 56.2°F13.4°C 84% 2.3 mph WSW3.7 kmh WSW 4.6 mph7.4 kmh 29.55 in1000.7 mb - 0.00 in0.0 mm 0.11 in2.8 mm
07:40 AM 60.6°F15.9°C 55.4°F13.0°C 83% 3.5 mph WSW5.6 kmh WSW 4.6 mph7.4 kmh 29.54 in1000.3 mb - 0.00 in0.0 mm 0.11 in2.8 mm
07:30 AM 60.2°F15.7°C 55.4°F13.0°C 84% 3.5 mph SW5.6 kmh SW 5.8 mph9.3 kmh 29.54 in1000.3 mb - 0.00 in0.0 mm 0.11 in2.8 mm
07:20 AM 60.0°F15.6°C 55.5°F13.1°C 85% 4.6 mph SW7.4 kmh SW 11.5 mph18.5 kmh 29.54 in1000.3 mb - 0.00 in0.0 mm 0.11 in2.8 mm
07:10 AM 59.7°F15.4°C 55.5°F13.1°C 86% 4.6 mph WSW7.4 kmh WSW 11.5 mph18.5 kmh 29.53 in1000.0 mb - 0.00 in0.0 mm 0.11 in2.8 mm
07:00 AM 59.7°F15.4°C 55.8°F13.2°C 87% 5.8 mph SW9.3 kmh SW 9.2 mph14.8 kmh 29.53 in1000.0 mb - 0.00 in0.0 mm 0.11 in2.8 mm
06:50 AM 59.4°F15.2°C 56.4°F13.6°C 90% 6.9 mph SW11.1 kmh SW 11.5 mph18.5 kmh 29.52 in999.7 mb - 0.00 in0.0 mm 0.11 in2.8 mm
06:40 AM 59.3°F15.2°C 57.0°F13.9°C 92% 5.8 mph WSW9.3 kmh WSW 10.4 mph16.7 kmh 29.53 in1000.0 mb - 0.00 in0.0 mm 0.11 in2.8 mm
06:30 AM 59.7°F15.4°C 57.4°F14.1°C 92% 8.1 mph WSW13.0 kmh WSW 10.4 mph16.7 kmh 29.53 in1000.0 mb - 0.00 in0.0 mm 0.11 in2.8 mm
06:20 AM 59.4°F15.2°C 57.1°F13.9°C 92% 8.1 mph WSW13.0 kmh WSW 11.5 mph18.5 kmh 29.53 in1000.0 mb - 0.00 in0.0 mm 0.11 in2.8 mm
06:10 AM 59.8°F15.4°C 57.8°F14.3°C 93% 6.9 mph SW11.1 kmh SW 11.5 mph18.5 kmh 29.52 in999.7 mb - 0.00 in0.0 mm 0.11 in2.8 mm
06:00 AM 59.6°F15.3°C 57.3°F14.1°C 92% 8.1 mph SW13.0 kmh SW 9.2 mph14.8 kmh 29.53 in1000.0 mb - 0.00 in0.0 mm 0.11 in2.8 mm
05:50 AM 59.5°F15.3°C 56.9°F13.8°C 91% 8.1 mph SW13.0 kmh SW 10.4 mph16.7 kmh 29.52 in999.7 mb - 0.01 in0.3 mm 0.11 in2.8 mm
05:40 AM 61.2°F16.2°C 57.9°F14.4°C 89% 9.2 mph SW14.8 kmh SW 15.0 mph24.1 kmh 29.51 in999.3 mb - 0.11 in2.8 mm 0.11 in2.8 mm
05:30 AM 62.9°F17.2°C 60.2°F15.7°C 91% 2.3 mph N3.7 kmh N 5.8 mph9.3 kmh 29.50 in999.0 mb - 0.00 in0.0 mm 0.00 in0.0 mm
05:20 AM 62.8°F17.1°C 59.8°F15.4°C 90% 3.5 mph NW5.6 kmh NW 11.5 mph18.5 kmh 29.50 in999.0 mb - 0.00 in0.0 mm 0.00 in0.0 mm
05:10 AM 62.8°F17.1°C 59.8°F15.4°C 90% 3.5 mph N5.6 kmh N 5.8 mph9.3 kmh 29.51 in999.3 mb - 0.00 in0.0 mm 0.00 in0.0 mm
05:00 AM 62.6°F17.0°C 59.6°F15.3°C 90% 2.3 mph WNW3.7 kmh WNW 8.1 mph13.0 kmh 29.52 in999.7 mb - 0.00 in0.0 mm 0.00 in0.0 mm
04:50 AM 62.5°F16.9°C 59.5°F15.3°C 90% 3.5 mph NNW5.6 kmh NNW 5.8 mph9.3 kmh 29.53 in1000.0 mb - 0.00 in0.0 mm 0.00 in0.0 mm
04:40 AM 62.3°F16.8°C 59.0°F15.0°C 89% 3.5 mph NW5.6 kmh NW 5.8 mph9.3 kmh 29.52 in999.7 mb - 0.00 in0.0 mm 0.00 in0.0 mm
04:30 AM 62.2°F16.8°C 59.0°F15.0°C 89% 3.5 mph N5.6 kmh N 9.2 mph14.8 kmh 29.53 in1000.0 mb - 0.00 in0.0 mm 0.00 in0.0 mm
04:20 AM 62.2°F16.8°C 58.6°F14.8°C 88% 2.3 mph NW3.7 kmh NW 3.5 mph5.6 kmh 29.53 in1000.0 mb - 0.00 in0.0 mm 0.00 in0.0 mm
04:10 AM 62.3°F16.8°C 58.7°F14.8°C 88% 1.2 mph NNW1.9 kmh NNW 3.5 mph5.6 kmh 29.53 in1000.0 mb - 0.00 in0.0 mm 0.00 in0.0 mm
04:00 AM 62.4°F16.9°C 58.5°F14.7°C 87% 1.2 mph NNW1.9 kmh NNW 2.3 mph3.7 kmh 29.53 in1000.0 mb - 0.00 in0.0 mm 0.00 in0.0 mm
03:50 AM 62.6°F17.0°C 58.7°F14.8°C 87% Calm Calm -- 29.53 in1000.0 mb - 0.00 in0.0 mm 0.00 in0.0 mm
03:40 AM 62.7°F17.1°C 58.8°F14.9°C 87% Calm Calm -- 29.54 in1000.3 mb - 0.00 in0.0 mm 0.00 in0.0 mm
03:30 AM 62.9°F17.2°C 58.6°F14.8°C 86% 2.3 mph NNW3.7 kmh NNW 3.5 mph5.6 kmh 29.55 in1000.7 mb - 0.00 in0.0 mm 0.00 in0.0 mm
03:20 AM 63.0°F17.2°C 58.7°F14.8°C 86% 2.3 mph N3.7 kmh N 6.9 mph11.1 kmh 29.56 in1001.0 mb - 0.00 in0.0 mm 0.00 in0.0 mm
03:10 AM 63.0°F17.2°C 58.4°F14.7°C 85% 1.2 mph NW1.9 kmh NW 4.6 mph7.4 kmh 29.56 in1001.0 mb - 0.00 in0.0 mm 0.00 in0.0 mm
03:00 AM 63.1°F17.3°C 58.5°F14.7°C 85% 4.6 mph NNW7.4 kmh NNW 9.2 mph14.8 kmh 29.56 in1001.0 mb - 0.00 in0.0 mm 0.00 in0.0 mm
02:50 AM 63.2°F17.3°C 58.3°F14.6°C 84% 3.5 mph WSW5.6 kmh WSW 5.8 mph9.3 kmh 29.56 in1001.0 mb - 0.00 in0.0 mm 0.00 in0.0 mm
02:40 AM 63.3°F17.4°C 58.0°F14.4°C 83% 2.3 mph NW3.7 kmh NW 3.5 mph5.6 kmh 29.57 in1001.4 mb - 0.00 in0.0 mm 0.00 in0.0 mm
02:30 AM 63.4°F17.4°C 57.8°F14.3°C 82% 1.2 mph NW1.9 kmh NW 3.5 mph5.6 kmh 29.57 in1001.4 mb - 0.00 in0.0 mm 0.00 in0.0 mm
02:20 AM 63.5°F17.5°C 57.6°F14.2°C 81% 3.5 mph NNW5.6 kmh NNW 6.9 mph11.1 kmh 29.57 in1001.4 mb - 0.00 in0.0 mm 0.00 in0.0 mm
02:10 AM 63.6°F17.6°C 57.7°F14.3°C 81% 3.5 mph NW5.6 kmh NW 6.9 mph11.1 kmh 29.57 in1001.4 mb - 0.00 in0.0 mm 0.00 in0.0 mm
02:00 AM 63.7°F17.6°C 57.8°F14.3°C 81% 2.3 mph WNW3.7 kmh WNW 8.1 mph13.0 kmh 29.58 in1001.7 mb - 0.00 in0.0 mm 0.00 in0.0 mm
01:50 AM 63.5°F17.5°C 57.6°F14.2°C 81% 8.1 mph NNW13.0 kmh NNW 9.2 mph14.8 kmh 29.58 in1001.7 mb - 0.00 in0.0 mm 0.00 in0.0 mm
01:40 AM 63.6°F17.6°C 57.6°F14.2°C 81% 4.6 mph WSW7.4 kmh WSW 8.1 mph13.0 kmh 29.58 in1001.7 mb - 0.00 in0.0 mm 0.00 in0.0 mm
01:30 AM 63.7°F17.6°C 57.4°F14.1°C 80% 2.3 mph W3.7 kmh W 8.1 mph13.0 kmh 29.59 in1002.0 mb - 0.00 in0.0 mm 0.00 in0.0 mm
01:20 AM 63.9°F17.7°C 57.6°F14.2°C 80% 9.2 mph NW14.8 kmh NW 11.5 mph18.5 kmh 29.59 in1002.0 mb - 0.00 in0.0 mm 0.00 in0.0 mm
01:10 AM 64.2°F17.9°C 57.9°F14.4°C 80% 3.5 mph WSW5.6 kmh WSW 4.6 mph7.4 kmh 29.59 in1002.0 mb - 0.00 in0.0 mm 0.00 in0.0 mm
01:00 AM 64.4°F18.0°C 58.1°F14.5°C 80% 3.5 mph WSW5.6 kmh WSW 3.5 mph5.6 kmh 29.60 in1002.4 mb - 0.00 in0.0 mm 0.00 in0.0 mm
12:50 AM 64.4°F18.0°C 58.1°F14.5°C 80% 6.9 mph WNW11.1 kmh WNW 11.5 mph18.5 kmh 29.60 in1002.4 mb - 0.00 in0.0 mm 0.00 in0.0 mm
12:40 AM 64.4°F18.0°C 58.4°F14.7°C 81% 6.9 mph W11.1 kmh W 10.4 mph16.7 kmh 29.60 in1002.4 mb - 0.00 in0.0 mm 0.00 in0.0 mm
12:30 AM 64.4°F18.0°C 58.4°F14.7°C 81% 6.9 mph W11.1 kmh W 9.2 mph14.8 kmh 29.60 in1002.4 mb - 0.00 in0.0 mm 0.00 in0.0 mm
12:20 AM 64.3°F17.9°C 58.7°F14.8°C 82% 6.9 mph WNW11.1 kmh WNW 10.4 mph16.7 kmh 29.61 in1002.7 mb - 0.00 in0.0 mm 0.00 in0.0 mm
12:10 AM 64.2°F17.9°C 58.6°F14.8°C 82% 5.8 mph NNW9.3 kmh NNW 8.1 mph13.0 kmh 29.61 in1002.7 mb - 0.00 in0.0 mm 0.00 in0.0 mm
12:00 AM 64.2°F17.9°C 58.9°F14.9°C 83% 3.5 mph NNW5.6 kmh NNW 11.5 mph18.5 kmh 29.61 in1002.7 mb - 0.00 in0.0 mm 0.00 in0.0 mm